Terminal Aerodrome Forecast
Issued by NWS Jackson, MS

Current Version | Previous Version | Text Only | Print | Product List | Glossary On
Versions: 1 2 3 4 5 6 7 8 9 10 11 12 13 14 15 16
000
FTUS44 KJAN 171100
TAFHBG
TAF
KHBG 171139Z 1712/1812 00000KT P6SM BKN040
     FM171400 10008KT P6SM BKN025
     FM171700 12008KT P6SM BKN035
     FM180700 10006KT P6SM -SHRA OVC015
     FM181000 10004KT P6SM -SHRA OVC007=

USA.gov is the U.S. government's official web portal to all federal, state and local government web resources and services.